sensor_id;sensor_type;location;lat;lon;timestamp;P1;durP1;ratioP1;P2;durP2;ratioP2
31378;SDS011;61664;48.112;11.662;2022-12-07T00:01:37;7.53;;;6.60;;
31378;SDS011;61664;48.112;11.662;2022-12-07T00:04:07;10.15;;;7.45;;
31378;SDS011;61664;48.112;11.662;2022-12-07T00:06:39;10.30;;;7.65;;
31378;SDS011;61664;48.112;11.662;2022-12-07T00:09:13;8.27;;;6.82;;
31378;SDS011;61664;48.112;11.662;2022-12-07T00:11:42;8.55;;;6.88;;
31378;SDS011;61664;48.112;11.662;2022-12-07T00:14:14;7.97;;;6.70;;
31378;SDS011;61664;48.112;11.662;2022-12-07T00:16:42;9.45;;;7.07;;
31378;SDS011;61664;48.112;11.662;2022-12-07T00:19:11;9.55;;;7.30;;
31378;SDS011;61664;48.112;11.662;2022-12-07T00:21:40;8.98;;;7.03;;
31378;SDS011;61664;48.112;11.662;2022-12-07T00:24:07;7.30;;;6.53;;
31378;SDS011;61664;48.112;11.662;2022-12-07T00:26:36;9.07;;;7.53;;
31378;SDS011;61664;48.112;11.662;2022-12-07T00:29:11;10.50;;;7.80;;
31378;SDS011;61664;48.112;11.662;2022-12-07T00:31:45;9.32;;;7.13;;
31378;SDS011;61664;48.112;11.662;2022-12-07T00:34:13;8.50;;;7.22;;
31378;SDS011;61664;48.112;11.662;2022-12-07T00:36:42;7.95;;;7.15;;
31378;SDS011;61664;48.112;11.662;2022-12-07T00:39:09;9.20;;;6.70;;
31378;SDS011;61664;48.112;11.662;2022-12-07T00:41:37;8.68;;;7.15;;
31378;SDS011;61664;48.112;11.662;2022-12-07T00:44:04;6.78;;;6.07;;
31378;SDS011;61664;48.112;11.662;2022-12-07T00:46:31;6.68;;;6.03;;
31378;SDS011;61664;48.112;11.662;2022-12-07T00:48:58;7.63;;;6.32;;
31378;SDS011;61664;48.112;11.662;2022-12-07T00:51:25;8.18;;;6.47;;
31378;SDS011;61664;48.112;11.662;2022-12-07T00:53:52;6.53;;;5.57;;
31378;SDS011;61664;48.112;11.662;2022-12-07T00:56:23;6.47;;;5.88;;
31378;SDS011;61664;48.112;11.662;2022-12-07T00:58:53;9.57;;;7.25;;
31378;SDS011;61664;48.112;11.662;2022-12-07T01:01:27;7.82;;;5.93;;
31378;SDS011;61664;48.112;11.662;2022-12-07T01:06:24;5.45;;;4.90;;
31378;SDS011;61664;48.112;11.662;2022-12-07T01:08:52;6.40;;;5.13;;
31378;SDS011;61664;48.112;11.662;2022-12-07T01:11:21;8.05;;;6.90;;
31378;SDS011;61664;48.112;11.662;2022-12-07T01:13:51;6.15;;;5.55;;
31378;SDS011;61664;48.112;11.662;2022-12-07T01:16:21;7.13;;;6.43;;
31378;SDS011;61664;48.112;11.662;2022-12-07T01:18:51;8.00;;;5.90;;
31378;SDS011;61664;48.112;11.662;2022-12-07T01:21:23;5.95;;;5.15;;
31378;SDS011;61664;48.112;11.662;2022-12-07T01:23:59;6.50;;;5.45;;
31378;SDS011;61664;48.112;11.662;2022-12-07T01:26:27;6.85;;;6.15;;
31378;SDS011;61664;48.112;11.662;2022-12-07T01:28:54;6.32;;;5.72;;
31378;SDS011;61664;48.112;11.662;2022-12-07T01:31:22;5.90;;;5.35;;
31378;SDS011;61664;48.112;11.662;2022-12-07T01:33:53;6.40;;;5.75;;
31378;SDS011;61664;48.112;11.662;2022-12-07T01:36:24;6.80;;;6.18;;
31378;SDS011;61664;48.112;11.662;2022-12-07T01:38:57;6.10;;;5.50;;
31378;SDS011;61664;48.112;11.662;2022-12-07T01:41:29;7.80;;;6.28;;
31378;SDS011;61664;48.112;11.662;2022-12-07T01:46:59;6.88;;;6.03;;
31378;SDS011;61664;48.112;11.662;2022-12-07T01:49:45;7.57;;;6.00;;
31378;SDS011;61664;48.112;11.662;2022-12-07T01:52:25;6.50;;;5.65;;
31378;SDS011;61664;48.112;11.662;2022-12-07T01:54:59;7.28;;;6.10;;
31378;SDS011;61664;48.112;11.662;2022-12-07T01:57:32;6.30;;;5.70;;
31378;SDS011;61664;48.112;11.662;2022-12-07T02:00:04;6.85;;;6.15;;
31378;SDS011;61664;48.112;11.662;2022-12-07T02:02:34;5.63;;;5.10;;
31378;SDS011;61664;48.112;11.662;2022-12-07T02:05:09;6.25;;;5.15;;
31378;SDS011;61664;48.112;11.662;2022-12-07T02:07:36;6.55;;;5.50;;
31378;SDS011;61664;48.112;11.662;2022-12-07T02:21:30;8.60;;;5.60;;
31378;SDS011;61664;48.112;11.662;2022-12-07T02:24:19;6.40;;;5.80;;
31378;SDS011;61664;48.112;11.662;2022-12-07T02:30:20;5.80;;;5.30;;
31378;SDS011;61664;48.112;11.662;2022-12-07T02:35:35;6.32;;;5.75;;
31378;SDS011;61664;48.112;11.662;2022-12-07T02:41:12;6.20;;;5.60;;
31378;SDS011;61664;48.112;11.662;2022-12-07T02:43:55;6.22;;;5.63;;
31378;SDS011;61664;48.112;11.662;2022-12-07T02:46:30;7.18;;;6.07;;
31378;SDS011;61664;48.112;11.662;2022-12-07T02:49:07;6.50;;;5.82;;
31378;SDS011;61664;48.112;11.662;2022-12-07T02:51:41;6.97;;;6.28;;
31378;SDS011;61664;48.112;11.662;2022-12-07T02:54:15;6.47;;;5.82;;
31378;SDS011;61664;48.112;11.662;2022-12-07T02:59:45;6.82;;;5.65;;
31378;SDS011;61664;48.112;11.662;2022-12-07T03:08:13;5.25;;;4.80;;
31378;SDS011;61664;48.112;11.662;2022-12-07T03:13:50;6.40;;;5.60;;
31378;SDS011;61664;48.112;11.662;2022-12-07T03:17:09;6.50;;;5.30;;
31378;SDS011;61664;48.112;11.662;2022-12-07T03:19:45;6.07;;;5.47;;
31378;SDS011;61664;48.112;11.662;2022-12-07T03:22:15;6.25;;;5.68;;
31378;SDS011;61664;48.112;11.662;2022-12-07T03:24:47;6.00;;;5.45;;
31378;SDS011;61664;48.112;11.662;2022-12-07T03:27:20;5.97;;;5.35;;
31378;SDS011;61664;48.112;11.662;2022-12-07T03:30:15;5.93;;;5.32;;
31378;SDS011;61664;48.112;11.662;2022-12-07T03:32:47;5.80;;;5.18;;
31378;SDS011;61664;48.112;11.662;2022-12-07T03:35:47;4.90;;;4.50;;
31378;SDS011;61664;48.112;11.662;2022-12-07T03:41:39;5.57;;;4.68;;
31378;SDS011;61664;48.112;11.662;2022-12-07T03:44:10;7.45;;;6.70;;
31378;SDS011;61664;48.112;11.662;2022-12-07T03:49:54;5.88;;;4.82;;
31378;SDS011;61664;48.112;11.662;2022-12-07T03:57:51;6.47;;;5.55;;
31378;SDS011;61664;48.112;11.662;2022-12-07T04:00:24;6.50;;;5.90;;
31378;SDS011;61664;48.112;11.662;2022-12-07T04:02:52;7.13;;;5.95;;
31378;SDS011;61664;48.112;11.662;2022-12-07T04:05:20;6.55;;;5.85;;
31378;SDS011;61664;48.112;11.662;2022-12-07T04:07:48;7.15;;;6.35;;
31378;SDS011;61664;48.112;11.662;2022-12-07T04:10:15;6.63;;;5.97;;
31378;SDS011;61664;48.112;11.662;2022-12-07T04:12:42;6.68;;;6.03;;
31378;SDS011;61664;48.112;11.662;2022-12-07T04:15:09;6.65;;;5.85;;
31378;SDS011;61664;48.112;11.662;2022-12-07T04:17:37;6.65;;;5.95;;
31378;SDS011;61664;48.112;11.662;2022-12-07T04:20:04;7.47;;;6.68;;
31378;SDS011;61664;48.112;11.662;2022-12-07T04:22:32;7.03;;;6.20;;
31378;SDS011;61664;48.112;11.662;2022-12-07T04:24:59;9.02;;;7.18;;
31378;SDS011;61664;48.112;11.662;2022-12-07T04:27:26;8.48;;;7.38;;
31378;SDS011;61664;48.112;11.662;2022-12-07T04:29:53;8.65;;;7.20;;
31378;SDS011;61664;48.112;11.662;2022-12-07T04:32:22;9.75;;;8.10;;
31378;SDS011;61664;48.112;11.662;2022-12-07T04:34:50;7.95;;;7.03;;
31378;SDS011;61664;48.112;11.662;2022-12-07T04:37:21;8.15;;;7.07;;
31378;SDS011;61664;48.112;11.662;2022-12-07T04:39:48;9.27;;;7.68;;
31378;SDS011;61664;48.112;11.662;2022-12-07T04:42:16;9.75;;;7.35;;
31378;SDS011;61664;48.112;11.662;2022-12-07T04:44:42;7.97;;;7.13;;
31378;SDS011;61664;48.112;11.662;2022-12-07T04:47:10;8.75;;;7.88;;
31378;SDS011;61664;48.112;11.662;2022-12-07T04:49:37;8.63;;;7.57;;
31378;SDS011;61664;48.112;11.662;2022-12-07T04:52:04;8.20;;;7.35;;
31378;SDS011;61664;48.112;11.662;2022-12-07T04:54:31;11.52;;;8.57;;
31378;SDS011;61664;48.112;11.662;2022-12-07T04:56:58;8.80;;;7.38;;
31378;SDS011;61664;48.112;11.662;2022-12-07T04:59:25;9.48;;;8.27;;
31378;SDS011;61664;48.112;11.662;2022-12-07T05:01:52;8.93;;;7.45;;
31378;SDS011;61664;48.112;11.662;2022-12-07T05:04:19;9.23;;;7.50;;
31378;SDS011;61664;48.112;11.662;2022-12-07T05:06:46;8.48;;;7.25;;
31378;SDS011;61664;48.112;11.662;2022-12-07T05:09:13;9.57;;;7.57;;
31378;SDS011;61664;48.112;11.662;2022-12-07T05:11:39;9.35;;;7.07;;
31378;SDS011;61664;48.112;11.662;2022-12-07T05:14:14;11.10;;;8.48;;
31378;SDS011;61664;48.112;11.662;2022-12-07T05:16:45;9.68;;;7.80;;
31378;SDS011;61664;48.112;11.662;2022-12-07T05:19:17;10.15;;;8.10;;
31378;SDS011;61664;48.112;11.662;2022-12-07T05:21:45;9.27;;;7.20;;
31378;SDS011;61664;48.112;11.662;2022-12-07T05:24:12;8.60;;;6.97;;
31378;SDS011;61664;48.112;11.662;2022-12-07T05:26:41;9.82;;;7.80;;
31378;SDS011;61664;48.112;11.662;2022-12-07T05:29:10;9.05;;;7.43;;
31378;SDS011;61664;48.112;11.662;2022-12-07T05:31:40;10.60;;;6.82;;
31378;SDS011;61664;48.112;11.662;2022-12-07T05:34:07;7.90;;;7.10;;
31378;SDS011;61664;48.112;11.662;2022-12-07T05:36:34;7.35;;;6.65;;
31378;SDS011;61664;48.112;11.662;2022-12-07T05:39:02;8.85;;;7.35;;
31378;SDS011;61664;48.112;11.662;2022-12-07T05:41:29;9.23;;;7.57;;
31378;SDS011;61664;48.112;11.662;2022-12-07T05:44:14;6.93;;;6.22;;
31378;SDS011;61664;48.112;11.662;2022-12-07T05:46:41;8.65;;;7.13;;
31378;SDS011;61664;48.112;11.662;2022-12-07T05:49:08;9.80;;;7.78;;
31378;SDS011;61664;48.112;11.662;2022-12-07T05:51:35;9.98;;;7.55;;
31378;SDS011;61664;48.112;11.662;2022-12-07T05:54:02;8.75;;;7.72;;
31378;SDS011;61664;48.112;11.662;2022-12-07T05:56:29;8.07;;;7.10;;
31378;SDS011;61664;48.112;11.662;2022-12-07T05:58:56;7.72;;;6.88;;
31378;SDS011;61664;48.112;11.662;2022-12-07T06:01:41;7.13;;;6.45;;
31378;SDS011;61664;48.112;11.662;2022-12-07T06:04:09;8.77;;;7.32;;
31378;SDS011;61664;48.112;11.662;2022-12-07T06:06:36;8.68;;;7.10;;
31378;SDS011;61664;48.112;11.662;2022-12-07T06:09:03;8.27;;;6.53;;
31378;SDS011;61664;48.112;11.662;2022-12-07T06:11:33;7.38;;;6.63;;
31378;SDS011;61664;48.112;11.662;2022-12-07T06:14:18;9.52;;;7.07;;
31378;SDS011;61664;48.112;11.662;2022-12-07T06:16:45;7.72;;;6.93;;
31378;SDS011;61664;48.112;11.662;2022-12-07T06:19:13;7.30;;;6.20;;
31378;SDS011;61664;48.112;11.662;2022-12-07T06:21:40;8.60;;;6.72;;
31378;SDS011;61664;48.112;11.662;2022-12-07T06:24:07;7.38;;;6.68;;
31378;SDS011;61664;48.112;11.662;2022-12-07T06:26:36;6.07;;;5.57;;
31378;SDS011;61664;48.112;11.662;2022-12-07T06:29:04;8.75;;;6.97;;
31378;SDS011;61664;48.112;11.662;2022-12-07T06:31:31;8.93;;;8.02;;
31378;SDS011;61664;48.112;11.662;2022-12-07T06:33:59;9.43;;;7.38;;
31378;SDS011;61664;48.112;11.662;2022-12-07T06:36:29;7.30;;;6.57;;
31378;SDS011;61664;48.112;11.662;2022-12-07T06:38:56;9.77;;;8.05;;
31378;SDS011;61664;48.112;11.662;2022-12-07T06:41:26;8.90;;;7.10;;
31378;SDS011;61664;48.112;11.662;2022-12-07T06:43:53;10.18;;;8.02;;
31378;SDS011;61664;48.112;11.662;2022-12-07T06:46:21;10.23;;;8.18;;
31378;SDS011;61664;48.112;11.662;2022-12-07T06:48:49;9.82;;;8.15;;
31378;SDS011;61664;48.112;11.662;2022-12-07T06:51:16;9.60;;;7.72;;
31378;SDS011;61664;48.112;11.662;2022-12-07T06:53:43;8.93;;;7.45;;
31378;SDS011;61664;48.112;11.662;2022-12-07T06:56:10;11.43;;;8.35;;
31378;SDS011;61664;48.112;11.662;2022-12-07T06:58:38;11.85;;;8.98;;
31378;SDS011;61664;48.112;11.662;2022-12-07T07:01:12;10.10;;;7.90;;
31378;SDS011;61664;48.112;11.662;2022-12-07T07:03:41;10.48;;;8.65;;
31378;SDS011;61664;48.112;11.662;2022-12-07T07:06:10;13.25;;;8.60;;
31378;SDS011;61664;48.112;11.662;2022-12-07T07:08:38;12.50;;;8.77;;
31378;SDS011;61664;48.112;11.662;2022-12-07T07:11:06;14.68;;;10.25;;
31378;SDS011;61664;48.112;11.662;2022-12-07T07:13:34;10.85;;;8.57;;
31378;SDS011;61664;48.112;11.662;2022-12-07T07:16:01;10.57;;;8.30;;
31378;SDS011;61664;48.112;11.662;2022-12-07T07:18:29;12.77;;;9.73;;
31378;SDS011;61664;48.112;11.662;2022-12-07T07:20:56;10.63;;;8.98;;
31378;SDS011;61664;48.112;11.662;2022-12-07T07:23:23;11.02;;;8.95;;
31378;SDS011;61664;48.112;11.662;2022-12-07T07:25:50;10.10;;;8.27;;
31378;SDS011;61664;48.112;11.662;2022-12-07T07:28:17;10.07;;;8.60;;
31378;SDS011;61664;48.112;11.662;2022-12-07T07:30:44;9.25;;;7.53;;
31378;SDS011;61664;48.112;11.662;2022-12-07T07:33:11;10.20;;;8.35;;
31378;SDS011;61664;48.112;11.662;2022-12-07T07:35:39;13.93;;;8.02;;
31378;SDS011;61664;48.112;11.662;2022-12-07T07:38:06;12.45;;;9.38;;
31378;SDS011;61664;48.112;11.662;2022-12-07T07:40:33;9.82;;;8.25;;
31378;SDS011;61664;48.112;11.662;2022-12-07T07:43:01;11.60;;;9.15;;
31378;SDS011;61664;48.112;11.662;2022-12-07T07:45:28;10.32;;;8.65;;
31378;SDS011;61664;48.112;11.662;2022-12-07T07:47:55;11.18;;;9.13;;
31378;SDS011;61664;48.112;11.662;2022-12-07T07:50:22;11.18;;;8.80;;
31378;SDS011;61664;48.112;11.662;2022-12-07T07:52:49;10.95;;;9.00;;
31378;SDS011;61664;48.112;11.662;2022-12-07T07:55:17;11.77;;;8.82;;
31378;SDS011;61664;48.112;11.662;2022-12-07T07:57:44;9.35;;;8.05;;
31378;SDS011;61664;48.112;11.662;2022-12-07T08:00:19;11.77;;;8.93;;
31378;SDS011;61664;48.112;11.662;2022-12-07T08:02:47;11.88;;;8.55;;
31378;SDS011;61664;48.112;11.662;2022-12-07T08:05:14;10.95;;;8.77;;
31378;SDS011;61664;48.112;11.662;2022-12-07T08:07:42;13.70;;;7.82;;
31378;SDS011;61664;48.112;11.662;2022-12-07T08:10:10;9.27;;;7.95;;
31378;SDS011;61664;48.112;11.662;2022-12-07T08:12:39;9.65;;;7.40;;
31378;SDS011;61664;48.112;11.662;2022-12-07T08:15:28;11.55;;;8.02;;
31378;SDS011;61664;48.112;11.662;2022-12-07T08:17:57;11.13;;;8.40;;
31378;SDS011;61664;48.112;11.662;2022-12-07T08:20:24;8.52;;;7.25;;
31378;SDS011;61664;48.112;11.662;2022-12-07T08:22:52;9.18;;;7.72;;
31378;SDS011;61664;48.112;11.662;2022-12-07T08:25:19;10.30;;;8.27;;
31378;SDS011;61664;48.112;11.662;2022-12-07T08:27:46;11.38;;;8.55;;
31378;SDS011;61664;48.112;11.662;2022-12-07T08:30:14;13.98;;;9.20;;
31378;SDS011;61664;48.112;11.662;2022-12-07T08:32:41;10.10;;;7.55;;
31378;SDS011;61664;48.112;11.662;2022-12-07T08:35:10;11.50;;;8.32;;
31378;SDS011;61664;48.112;11.662;2022-12-07T08:37:37;11.07;;;7.80;;
31378;SDS011;61664;48.112;11.662;2022-12-07T08:40:04;11.23;;;8.10;;
31378;SDS011;61664;48.112;11.662;2022-12-07T08:42:34;9.32;;;7.63;;
31378;SDS011;61664;48.112;11.662;2022-12-07T08:45:07;10.77;;;7.97;;
31378;SDS011;61664;48.112;11.662;2022-12-07T08:47:38;12.18;;;8.65;;
31378;SDS011;61664;48.112;11.662;2022-12-07T08:50:20;11.88;;;8.45;;
31378;SDS011;61664;48.112;11.662;2022-12-07T08:52:50;10.18;;;8.00;;
31378;SDS011;61664;48.112;11.662;2022-12-07T08:55:20;9.43;;;7.90;;
31378;SDS011;61664;48.112;11.662;2022-12-07T08:57:48;11.23;;;8.15;;
31378;SDS011;61664;48.112;11.662;2022-12-07T09:00:15;10.80;;;8.38;;
31378;SDS011;61664;48.112;11.662;2022-12-07T09:02:45;11.38;;;8.88;;
31378;SDS011;61664;48.112;11.662;2022-12-07T09:05:13;12.65;;;7.78;;
31378;SDS011;61664;48.112;11.662;2022-12-07T09:07:43;10.65;;;8.35;;
31378;SDS011;61664;48.112;11.662;2022-12-07T09:10:14;10.98;;;7.78;;
31378;SDS011;61664;48.112;11.662;2022-12-07T09:12:41;8.48;;;7.57;;
31378;SDS011;61664;48.112;11.662;2022-12-07T09:15:08;10.65;;;8.60;;
31378;SDS011;61664;48.112;11.662;2022-12-07T09:17:35;9.30;;;7.78;;
31378;SDS011;61664;48.112;11.662;2022-12-07T09:20:04;9.45;;;7.57;;
31378;SDS011;61664;48.112;11.662;2022-12-07T09:22:32;11.32;;;7.95;;
31378;SDS011;61664;48.112;11.662;2022-12-07T09:24:59;8.02;;;7.22;;
31378;SDS011;61664;48.112;11.662;2022-12-07T09:27:27;10.40;;;8.45;;
31378;SDS011;61664;48.112;11.662;2022-12-07T09:29:54;9.25;;;7.75;;
31378;SDS011;61664;48.112;11.662;2022-12-07T09:32:22;9.80;;;7.97;;
31378;SDS011;61664;48.112;11.662;2022-12-07T09:34:49;10.38;;;7.63;;
31378;SDS011;61664;48.112;11.662;2022-12-07T09:37:16;10.13;;;7.63;;
31378;SDS011;61664;48.112;11.662;2022-12-07T09:39:43;11.85;;;8.23;;
31378;SDS011;61664;48.112;11.662;2022-12-07T09:42:34;8.95;;;7.45;;
31378;SDS011;61664;48.112;11.662;2022-12-07T09:45:10;9.05;;;7.63;;
31378;SDS011;61664;48.112;11.662;2022-12-07T09:47:52;8.77;;;7.53;;
31378;SDS011;61664;48.112;11.662;2022-12-07T09:50:20;9.10;;;7.88;;
31378;SDS011;61664;48.112;11.662;2022-12-07T09:52:51;10.55;;;8.07;;
31378;SDS011;61664;48.112;11.662;2022-12-07T09:55:28;10.90;;;8.75;;
31378;SDS011;61664;48.112;11.662;2022-12-07T09:57:57;11.80;;;8.02;;
31378;SDS011;61664;48.112;11.662;2022-12-07T10:00:24;9.27;;;8.02;;
31378;SDS011;61664;48.112;11.662;2022-12-07T10:05:47;8.23;;;6.97;;
31378;SDS011;61664;48.112;11.662;2022-12-07T10:08:17;9.55;;;7.97;;
31378;SDS011;61664;48.112;11.662;2022-12-07T10:10:50;8.73;;;7.68;;
31378;SDS011;61664;48.112;11.662;2022-12-07T10:13:22;9.88;;;8.23;;
31378;SDS011;61664;48.112;11.662;2022-12-07T10:16:06;9.77;;;7.65;;
31378;SDS011;61664;48.112;11.662;2022-12-07T10:18:54;10.23;;;7.57;;
31378;SDS011;61664;48.112;11.662;2022-12-07T10:21:25;8.35;;;7.43;;
31378;SDS011;61664;48.112;11.662;2022-12-07T10:26:38;7.70;;;6.90;;
31378;SDS011;61664;48.112;11.662;2022-12-07T10:29:17;9.50;;;7.85;;
31378;SDS011;61664;48.112;11.662;2022-12-07T10:32:05;8.63;;;6.82;;
31378;SDS011;61664;48.112;11.662;2022-12-07T10:34:42;8.95;;;6.95;;
31378;SDS011;61664;48.112;11.662;2022-12-07T10:37:18;8.65;;;7.15;;
31378;SDS011;61664;48.112;11.662;2022-12-07T10:54:18;7.78;;;6.68;;
31378;SDS011;61664;48.112;11.662;2022-12-07T10:57:12;7.90;;;6.95;;
31378;SDS011;61664;48.112;11.662;2022-12-07T11:00:08;7.00;;;6.10;;
31378;SDS011;61664;48.112;11.662;2022-12-07T11:05:35;7.65;;;6.50;;
31378;SDS011;61664;48.112;11.662;2022-12-07T11:08:39;6.78;;;5.80;;
31378;SDS011;61664;48.112;11.662;2022-12-07T11:17:45;6.63;;;6.00;;
31378;SDS011;61664;48.112;11.662;2022-12-07T11:21:16;6.88;;;6.20;;
31378;SDS011;61664;48.112;11.662;2022-12-07T11:24:01;7.75;;;6.80;;
31378;SDS011;61664;48.112;11.662;2022-12-07T11:32:40;7.25;;;6.55;;
31378;SDS011;61664;48.112;11.662;2022-12-07T11:35:19;7.55;;;6.70;;
31378;SDS011;61664;48.112;11.662;2022-12-07T11:38:14;8.32;;;6.72;;
31378;SDS011;61664;48.112;11.662;2022-12-07T11:40:53;8.35;;;7.15;;
31378;SDS011;61664;48.112;11.662;2022-12-07T11:46:54;7.53;;;6.38;;
31378;SDS011;61664;48.112;11.662;2022-12-07T11:55:07;6.82;;;6.13;;
31378;SDS011;61664;48.112;11.662;2022-12-07T11:57:53;6.88;;;6.28;;
31378;SDS011;61664;48.112;11.662;2022-12-07T12:00:36;6.68;;;6.03;;
31378;SDS011;61664;48.112;11.662;2022-12-07T12:03:09;5.07;;;4.60;;
31378;SDS011;61664;48.112;11.662;2022-12-07T12:05:46;6.47;;;4.97;;
31378;SDS011;61664;48.112;11.662;2022-12-07T12:08:18;7.40;;;6.68;;
31378;SDS011;61664;48.112;11.662;2022-12-07T12:14:14;9.00;;;7.78;;
31378;SDS011;61664;48.112;11.662;2022-12-07T12:17:14;7.82;;;7.03;;
31378;SDS011;61664;48.112;11.662;2022-12-07T12:20:28;7.82;;;6.97;;
31378;SDS011;61664;48.112;11.662;2022-12-07T12:23:23;7.85;;;7.07;;
31378;SDS011;61664;48.112;11.662;2022-12-07T12:26:24;6.50;;;5.72;;
31378;SDS011;61664;48.112;11.662;2022-12-07T12:29:06;7.95;;;7.05;;
31378;SDS011;61664;48.112;11.662;2022-12-07T12:32:06;7.72;;;6.80;;
31378;SDS011;61664;48.112;11.662;2022-12-07T12:34:57;10.45;;;8.15;;
31378;SDS011;61664;48.112;11.662;2022-12-07T12:37:43;7.97;;;7.18;;
31378;SDS011;61664;48.112;11.662;2022-12-07T12:42:58;8.73;;;7.82;;
31378;SDS011;61664;48.112;11.662;2022-12-07T12:45:29;7.63;;;6.47;;
31378;SDS011;61664;48.112;11.662;2022-12-07T12:50:47;7.75;;;6.70;;
31378;SDS011;61664;48.112;11.662;2022-12-07T12:53:16;7.03;;;6.05;;
31378;SDS011;61664;48.112;11.662;2022-12-07T12:56:33;9.32;;;7.22;;
31378;SDS011;61664;48.112;11.662;2022-12-07T12:59:34;9.48;;;6.60;;
31378;SDS011;61664;48.112;11.662;2022-12-07T13:12:59;7.50;;;6.15;;
31378;SDS011;61664;48.112;11.662;2022-12-07T13:15:38;8.60;;;6.05;;
31378;SDS011;61664;48.112;11.662;2022-12-07T13:23:38;6.88;;;6.10;;
31378;SDS011;61664;48.112;11.662;2022-12-07T13:31:46;6.75;;;6.05;;
31378;SDS011;61664;48.112;11.662;2022-12-07T13:37:00;7.38;;;6.35;;
31378;SDS011;61664;48.112;11.662;2022-12-07T13:39:47;10.00;;;6.40;;
31378;SDS011;61664;48.112;11.662;2022-12-07T13:44:59;7.68;;;6.53;;
31378;SDS011;61664;48.112;11.662;2022-12-07T13:47:53;6.30;;;5.57;;
31378;SDS011;61664;48.112;11.662;2022-12-07T13:50:26;8.55;;;5.93;;
31378;SDS011;61664;48.112;11.662;2022-12-07T13:52:58;7.30;;;6.20;;
31378;SDS011;61664;48.112;11.662;2022-12-07T13:55:27;8.38;;;5.75;;
31378;SDS011;61664;48.112;11.662;2022-12-07T13:57:56;6.45;;;5.82;;
31378;SDS011;61664;48.112;11.662;2022-12-07T14:00:26;9.27;;;7.22;;
31378;SDS011;61664;48.112;11.662;2022-12-07T14:05:32;8.82;;;6.88;;
31378;SDS011;61664;48.112;11.662;2022-12-07T14:16:26;5.90;;;5.30;;
31378;SDS011;61664;48.112;11.662;2022-12-07T14:19:04;6.38;;;5.78;;
31378;SDS011;61664;48.112;11.662;2022-12-07T14:22:05;6.75;;;5.13;;
31378;SDS011;61664;48.112;11.662;2022-12-07T14:24:58;9.93;;;6.63;;
31378;SDS011;61664;48.112;11.662;2022-12-07T14:27:35;7.95;;;5.80;;
31378;SDS011;61664;48.112;11.662;2022-12-07T14:30:03;8.85;;;6.60;;
31378;SDS011;61664;48.112;11.662;2022-12-07T14:32:34;5.93;;;5.32;;
31378;SDS011;61664;48.112;11.662;2022-12-07T14:35:10;6.88;;;6.00;;
31378;SDS011;61664;48.112;11.662;2022-12-07T14:37:40;5.72;;;5.20;;
31378;SDS011;61664;48.112;11.662;2022-12-07T14:40:12;7.32;;;5.93;;
31378;SDS011;61664;48.112;11.662;2022-12-07T14:42:45;10.80;;;7.15;;
31378;SDS011;61664;48.112;11.662;2022-12-07T14:45:18;8.23;;;6.40;;
31378;SDS011;61664;48.112;11.662;2022-12-07T14:47:48;11.02;;;7.50;;
31378;SDS011;61664;48.112;11.662;2022-12-07T14:50:36;8.95;;;7.30;;
31378;SDS011;61664;48.112;11.662;2022-12-07T14:53:28;11.52;;;6.82;;
31378;SDS011;61664;48.112;11.662;2022-12-07T14:56:22;9.13;;;6.93;;
31378;SDS011;61664;48.112;11.662;2022-12-07T14:58:51;10.93;;;7.70;;
31378;SDS011;61664;48.112;11.662;2022-12-07T15:01:18;8.65;;;7.30;;
31378;SDS011;61664;48.112;11.662;2022-12-07T15:03:45;9.23;;;7.35;;
31378;SDS011;61664;48.112;11.662;2022-12-07T15:06:15;7.53;;;6.03;;
31378;SDS011;61664;48.112;11.662;2022-12-07T15:08:44;6.65;;;5.93;;
31378;SDS011;61664;48.112;11.662;2022-12-07T15:11:15;10.93;;;6.75;;
31378;SDS011;61664;48.112;11.662;2022-12-07T15:13:44;8.18;;;6.47;;
31378;SDS011;61664;48.112;11.662;2022-12-07T15:16:30;8.43;;;6.72;;
31378;SDS011;61664;48.112;11.662;2022-12-07T15:19:20;8.18;;;6.72;;
31378;SDS011;61664;48.112;11.662;2022-12-07T15:21:54;7.35;;;6.00;;
31378;SDS011;61664;48.112;11.662;2022-12-07T15:24:21;8.75;;;7.25;;
31378;SDS011;61664;48.112;11.662;2022-12-07T15:26:50;8.38;;;6.85;;
31378;SDS011;61664;48.112;11.662;2022-12-07T15:29:17;17.25;;;13.93;;
31378;SDS011;61664;48.112;11.662;2022-12-07T15:31:50;15.10;;;12.00;;
31378;SDS011;61664;48.112;11.662;2022-12-07T15:34:23;21.10;;;15.35;;
31378;SDS011;61664;48.112;11.662;2022-12-07T15:36:51;11.60;;;8.82;;
31378;SDS011;61664;48.112;11.662;2022-12-07T15:39:18;11.88;;;9.10;;
31378;SDS011;61664;48.112;11.662;2022-12-07T15:41:45;11.32;;;8.10;;
31378;SDS011;61664;48.112;11.662;2022-12-07T15:44:12;10.57;;;8.32;;
31378;SDS011;61664;48.112;11.662;2022-12-07T15:46:59;12.27;;;9.18;;
31378;SDS011;61664;48.112;11.662;2022-12-07T15:49:27;10.55;;;7.57;;
31378;SDS011;61664;48.112;11.662;2022-12-07T15:51:54;9.98;;;7.63;;
31378;SDS011;61664;48.112;11.662;2022-12-07T15:54:25;11.13;;;8.13;;
31378;SDS011;61664;48.112;11.662;2022-12-07T15:56:54;10.00;;;8.30;;
31378;SDS011;61664;48.112;11.662;2022-12-07T15:59:22;12.45;;;8.93;;
31378;SDS011;61664;48.112;11.662;2022-12-07T16:01:52;10.73;;;8.85;;
31378;SDS011;61664;48.112;11.662;2022-12-07T16:04:19;9.93;;;7.82;;
31378;SDS011;61664;48.112;11.662;2022-12-07T16:06:46;11.52;;;8.48;;
31378;SDS011;61664;48.112;11.662;2022-12-07T16:09:13;11.05;;;9.43;;
31378;SDS011;61664;48.112;11.662;2022-12-07T16:11:41;10.00;;;7.57;;
31378;SDS011;61664;48.112;11.662;2022-12-07T16:14:07;10.70;;;7.85;;
31378;SDS011;61664;48.112;11.662;2022-12-07T16:16:34;14.30;;;9.30;;
31378;SDS011;61664;48.112;11.662;2022-12-07T16:19:01;10.00;;;7.32;;
31378;SDS011;61664;48.112;11.662;2022-12-07T16:21:29;11.63;;;8.13;;
31378;SDS011;61664;48.112;11.662;2022-12-07T16:23:57;13.18;;;9.48;;
31378;SDS011;61664;48.112;11.662;2022-12-07T16:26:25;11.38;;;8.82;;
31378;SDS011;61664;48.112;11.662;2022-12-07T16:28:52;13.30;;;8.23;;
31378;SDS011;61664;48.112;11.662;2022-12-07T16:31:22;10.85;;;8.25;;
31378;SDS011;61664;48.112;11.662;2022-12-07T16:36:24;9.73;;;7.05;;
31378;SDS011;61664;48.112;11.662;2022-12-07T16:39:13;11.60;;;8.05;;
31378;SDS011;61664;48.112;11.662;2022-12-07T16:41:40;8.40;;;6.95;;
31378;SDS011;61664;48.112;11.662;2022-12-07T16:44:09;10.20;;;7.88;;
31378;SDS011;61664;48.112;11.662;2022-12-07T16:46:39;10.80;;;6.65;;
31378;SDS011;61664;48.112;11.662;2022-12-07T16:49:09;8.88;;;7.35;;
31378;SDS011;61664;48.112;11.662;2022-12-07T16:51:39;9.45;;;7.35;;
31378;SDS011;61664;48.112;11.662;2022-12-07T16:54:12;9.32;;;7.38;;
31378;SDS011;61664;48.112;11.662;2022-12-07T16:56:39;12.60;;;8.25;;
31378;SDS011;61664;48.112;11.662;2022-12-07T16:59:06;11.18;;;8.32;;
31378;SDS011;61664;48.112;11.662;2022-12-07T17:01:33;10.82;;;8.52;;
31378;SDS011;61664;48.112;11.662;2022-12-07T17:04:02;13.15;;;8.48;;
31378;SDS011;61664;48.112;11.662;2022-12-07T17:06:30;18.05;;;10.07;;
31378;SDS011;61664;48.112;11.662;2022-12-07T17:08:57;23.65;;;10.93;;
31378;SDS011;61664;48.112;11.662;2022-12-07T17:11:28;18.67;;;11.13;;
31378;SDS011;61664;48.112;11.662;2022-12-07T17:13:59;30.45;;;16.40;;
31378;SDS011;61664;48.112;11.662;2022-12-07T17:16:44;31.10;;;17.70;;
31378;SDS011;61664;48.112;11.662;2022-12-07T17:19:13;31.05;;;16.88;;
31378;SDS011;61664;48.112;11.662;2022-12-07T17:21:42;35.78;;;19.08;;
31378;SDS011;61664;48.112;11.662;2022-12-07T17:24:10;29.42;;;17.23;;
31378;SDS011;61664;48.112;11.662;2022-12-07T17:26:41;23.27;;;13.57;;